Time;durP1;ratioP1;P1;durP2;ratioP2;P2;SDS_P1;SDS_P2;PMS_P1;PMS_P2;Temp;Humidity;BMP_temperature;BMP_pressure;BME280_temperature;BME280_humidity;BME280_pressure;Samples;Min_cycle;Max_cycle;Signal;HPM_P1;HPM_P2
2021/07/08 00:01:24;;;;;;;6.00;4.60;;;23.30;88.90;;;;;;5093937;28;20103;-92
2021/07/08 00:03:50;;;;;;;7.28;4.88;;;23.40;89.10;;;;;;5093189;28;20113;-91
2021/07/08 00:06:16;;;;;;;7.07;4.63;;;23.30;89.00;;;;;;5093276;28;20035;-92
2021/07/08 00:08:41;;;;;;;4.50;4.10;;;23.30;89.10;;;;;;5094782;28;20054;-92
2021/07/08 00:11:07;;;;;;;5.55;4.20;;;23.30;89.30;;;;;;5096101;28;20036;-91
2021/07/08 00:13:33;;;;;;;4.70;4.30;;;23.30;89.60;;;;;;5119127;28;20031;-92
2021/07/08 00:15:59;;;;;;;7.88;4.43;;;23.20;89.70;;;;;;5104651;28;20052;-91
2021/07/08 00:18:27;;;;;;;5.03;3.60;;;23.20;90.00;;;;;;5076542;28;20040;-92
2021/07/08 00:20:54;;;;;;;4.43;3.80;;;23.20;90.00;;;;;;5076397;28;20062;-92
2021/07/08 00:23:20;;;;;;;5.85;3.92;;;23.20;90.20;;;;;;5076239;28;20481;-92
2021/07/08 00:25:48;;;;;;;4.85;4.03;;;23.20;90.30;;;;;;5076225;28;20529;-92
2021/07/08 00:28:15;;;;;;;6.55;4.35;;;23.20;90.50;;;;;;5076342;28;20089;-92
2021/07/08 00:30:43;;;;;;;5.28;4.22;;;23.10;90.60;;;;;;5076007;28;20032;-91
2021/07/08 00:33:09;;;;;;;4.38;3.80;;;23.20;90.80;;;;;;5076103;28;20120;-92
2021/07/08 00:35:36;;;;;;;4.70;4.15;;;23.10;90.90;;;;;;5077283;28;20028;-92
2021/07/08 00:38:03;;;;;;;7.18;4.50;;;23.10;91.10;;;;;;5075860;28;20127;-91
2021/07/08 00:40:29;;;;;;;4.30;3.90;;;23.10;91.30;;;;;;5075770;28;20437;-92
2021/07/08 00:42:56;;;;;;;6.70;4.18;;;23.00;91.50;;;;;;5076137;28;20489;-90
2021/07/08 00:45:23;;;;;;;6.05;4.55;;;23.00;91.70;;;;;;5092739;28;20032;-89
2021/07/08 00:47:51;;;;;;;5.35;4.78;;;23.00;91.80;;;;;;5094110;28;20050;-92
2021/07/08 00:50:21;;;;;;;5.00;4.22;;;23.00;92.00;;;;;;5075827;28;20036;-92
2021/07/08 00:52:47;;;;;;;5.00;4.50;;;23.00;92.20;;;;;;5076082;28;20519;-92
2021/07/08 00:55:13;;;;;;;7.65;4.45;;;22.90;92.40;;;;;;5094119;28;20036;-92
2021/07/08 00:57:41;;;;;;;4.38;3.90;;;22.90;92.50;;;;;;5092265;28;20488;-92
2021/07/08 01:00:07;;;;;;;4.57;4.18;;;22.90;92.70;;;;;;5075605;28;20035;-92
2021/07/08 01:02:34;;;;;;;6.57;4.50;;;22.90;92.90;;;;;;5075464;28;20130;-92
2021/07/08 01:05:00;;;;;;;5.75;4.47;;;22.90;93.20;;;;;;5075682;28;20040;-91
2021/07/08 01:07:27;;;;;;;5.13;4.63;;;22.80;93.20;;;;;;5092644;28;20055;-92
2021/07/08 01:09:52;;;;;;;7.75;4.25;;;22.80;93.50;;;;;;5075486;28;20024;-92
2021/07/08 01:12:18;;;;;;;8.20;4.60;;;22.80;93.60;;;;;;5092295;28;20039;-92
2021/07/08 01:14:44;;;;;;;5.60;4.80;;;22.80;93.80;;;;;;5075421;28;20032;-91
2021/07/08 01:17:11;;;;;;;5.55;4.43;;;22.80;93.90;;;;;;5092095;28;20523;-91
2021/07/08 01:19:38;;;;;;;6.97;4.18;;;22.80;94.10;;;;;;5075356;28;20036;-92
2021/07/08 01:22:05;;;;;;;7.53;4.50;;;22.70;94.30;;;;;;5075184;28;20028;-92
2021/07/08 01:24:32;;;;;;;7.95;4.50;;;22.80;94.30;;;;;;5075224;28;20043;-91
2021/07/08 01:26:59;;;;;;;5.32;4.80;;;22.70;94.40;;;;;;5075295;28;20036;-91
2021/07/08 01:29:25;;;;;;;4.70;4.30;;;22.70;94.40;;;;;;5079086;28;20036;-92
2021/07/08 01:31:51;;;;;;;5.75;5.05;;;22.70;94.60;;;;;;5096116;28;20035;-91
2021/07/08 01:34:23;;;;;;;5.40;4.63;;;22.70;94.90;;;;;;5097077;28;20064;-91
2021/07/08 01:36:49;;;;;;;8.15;4.90;;;22.70;94.90;;;;;;5099518;28;20024;-91
2021/07/08 01:39:14;;;;;;;5.88;5.28;;;22.70;95.00;;;;;;5103985;28;20040;-92
2021/07/08 01:41:40;;;;;;;5.05;4.30;;;22.70;95.10;;;;;;5095906;28;20029;-92
2021/07/08 01:44:06;;;;;;;6.35;4.95;;;22.70;95.20;;;;;;5079338;28;20082;-92
2021/07/08 01:46:32;;;;;;;5.60;5.10;;;22.60;95.30;;;;;;5099591;28;20032;-91
2021/07/08 01:48:58;;;;;;;7.40;5.20;;;22.60;95.40;;;;;;5099366;28;20054;-92
2021/07/08 01:51:23;;;;;;;4.60;4.20;;;22.60;95.70;;;;;;5095959;28;20131;-92
2021/07/08 01:53:50;;;;;;;5.53;4.97;;;22.60;95.70;;;;;;5092566;28;20028;-92
2021/07/08 01:56:15;;;;;;;6.82;5.00;;;22.60;95.90;;;;;;5105004;28;20035;-91
2021/07/08 01:58:41;;;;;;;6.70;5.03;;;22.60;96.10;;;;;;5096960;28;20044;-92
2021/07/08 02:01:07;;;;;;;6.75;5.00;;;22.60;96.30;;;;;;5095796;28;20032;-92
2021/07/08 02:03:33;;;;;;;6.78;5.30;;;22.50;96.40;;;;;;5078856;28;20503;-91
2021/07/08 02:05:59;;;;;;;6.95;4.68;;;22.50;96.50;;;;;;5095808;28;20036;-92
2021/07/08 02:08:25;;;;;;;5.60;5.00;;;22.60;96.50;;;;;;5095448;28;20040;-91
2021/07/08 02:10:50;;;;;;;9.52;5.50;;;22.60;96.60;;;;;;5095312;28;20032;-92
2021/07/08 02:13:16;;;;;;;8.05;5.00;;;22.60;96.60;;;;;;5095449;28;20149;-91
2021/07/08 02:15:42;;;;;;;7.75;5.15;;;22.60;96.60;;;;;;5078297;28;20062;-91
2021/07/08 02:18:08;;;;;;;5.90;5.30;;;22.60;96.70;;;;;;5078570;28;20075;-90
2021/07/08 02:20:34;;;;;;;5.78;5.28;;;22.60;96.70;;;;;;5096423;28;20036;-91
2021/07/08 02:23:00;;;;;;;6.32;4.80;;;22.70;96.70;;;;;;5096618;28;20056;-91
2021/07/08 02:25:26;;;;;;;8.88;4.88;;;22.60;96.60;;;;;;5096230;28;20439;-91
2021/07/08 02:27:53;;;;;;;5.65;4.60;;;22.70;96.50;;;;;;5078127;28;20032;-92
2021/07/08 02:30:20;;;;;;;6.63;4.88;;;22.70;96.20;;;;;;5077989;28;20047;-92
2021/07/08 02:32:48;;;;;;;6.43;4.30;;;22.80;96.10;;;;;;5077925;28;20040;-92
2021/07/08 02:35:15;;;;;;;5.18;4.68;;;22.80;95.90;;;;;;5079503;28;20396;-91
2021/07/08 02:37:41;;;;;;;4.97;4.38;;;22.90;95.50;;;;;;5077768;28;20439;-91
2021/07/08 02:40:15;;;;;;;7.53;4.68;;;22.90;95.10;;;;;;5077499;28;20036;-91
2021/07/08 02:42:44;;;;;;;6.07;4.65;;;23.00;94.90;;;;;;5077655;28;20036;-91
2021/07/08 02:45:10;;;;;;;5.22;4.70;;;23.00;94.50;;;;;;5082257;23;20547;-89
2021/07/08 02:47:36;;;;;;;7.15;4.20;;;23.00;94.20;;;;;;5057776;28;20370;-89
2021/07/08 02:50:04;;;;;;;5.00;4.53;;;23.00;93.90;;;;;;5074453;28;20031;-89
2021/07/08 02:52:29;;;;;;;4.88;4.30;;;23.10;93.70;;;;;;5075368;28;20043;-88
2021/07/08 02:54:55;;;;;;;6.25;4.40;;;23.10;93.40;;;;;;5074467;28;20131;-89
2021/07/08 02:57:22;;;;;;;6.45;4.60;;;23.10;93.10;;;;;;5080131;28;20111;-92
2021/07/08 02:59:47;;;;;;;6.13;4.00;;;23.10;92.80;;;;;;5074164;28;20032;-91
2021/07/08 03:02:13;;;;;;;5.22;4.28;;;23.20;92.60;;;;;;5075550;28;20032;-92
2021/07/08 03:04:39;;;;;;;6.15;4.38;;;23.20;92.60;;;;;;5074398;28;20040;-92
2021/07/08 03:07:05;;;;;;;5.40;4.60;;;23.20;92.00;;;;;;5074526;28;20059;-90
2021/07/08 03:09:31;;;;;;;7.78;4.63;;;23.30;91.70;;;;;;5082494;28;20032;-89
2021/07/08 03:11:56;;;;;;;5.70;4.72;;;23.30;91.40;;;;;;5072673;28;20124;-91
2021/07/08 03:14:22;;;;;;;6.60;5.03;;;23.40;91.10;;;;;;5072556;28;20513;-91
2021/07/08 03:16:48;;;;;;;5.05;4.55;;;23.40;90.70;;;;;;5056661;28;20049;-91
2021/07/08 03:19:13;;;;;;;5.85;5.10;;;23.40;90.40;;;;;;5072335;28;20496;-89
2021/07/08 03:21:39;;;;;;;4.63;4.22;;;23.50;90.10;;;;;;5072696;28;20033;-88
2021/07/08 03:24:06;;;;;;;4.80;4.40;;;23.50;90.00;;;;;;5072367;28;20036;-88
2021/07/08 03:26:32;;;;;;;4.82;4.32;;;23.60;89.40;;;;;;5071986;28;20033;-87
2021/07/08 03:28:58;;;;;;;6.00;4.50;;;23.60;88.50;;;;;;5055375;28;20040;-87
2021/07/08 03:31:23;;;;;;;5.30;4.78;;;23.70;88.00;;;;;;5072258;28;20424;-89
2021/07/08 03:33:49;;;;;;;4.40;4.00;;;23.70;87.60;;;;;;5072675;28;20106;-87
2021/07/08 03:36:15;;;;;;;7.82;4.50;;;23.70;87.30;;;;;;5073818;28;20041;-88
2021/07/08 03:38:40;;;;;;;4.90;4.40;;;23.80;86.90;;;;;;5055579;28;20461;-87
2021/07/08 03:41:06;;;;;;;6.97;4.97;;;23.90;86.20;;;;;;5073881;28;20033;-88
2021/07/08 03:43:32;;;;;;;5.82;4.15;;;23.90;85.50;;;;;;5072152;28;20382;-87
2021/07/08 03:45:57;;;;;;;7.25;5.00;;;24.00;85.20;;;;;;5076438;28;20094;-88
2021/07/08 03:48:23;;;;;;;6.63;4.50;;;24.10;84.50;;;;;;5071505;28;20029;-88
2021/07/08 03:50:49;;;;;;;5.57;5.07;;;24.10;84.10;;;;;;5070413;28;20559;-89
2021/07/08 03:53:15;;;;;;;8.55;4.68;;;24.20;83.30;;;;;;5071326;28;20120;-88
2021/07/08 03:55:40;;;;;;;5.55;4.63;;;24.30;82.50;;;;;;5071489;28;20032;-88
2021/07/08 03:58:06;;;;;;;7.82;4.60;;;24.30;81.30;;;;;;5071474;28;20039;-88
2021/07/08 04:00:35;;;;;;;4.93;4.45;;;24.40;81.10;;;;;;5071274;28;20036;-88
2021/07/08 04:03:05;;;;;;;3.97;3.63;;;24.40;80.90;;;;;;5071085;28;20036;-89
2021/07/08 04:05:31;;;;;;;6.15;3.75;;;24.50;80.80;;;;;;5071998;28;20044;-88
2021/07/08 04:07:57;;;;;;;6.03;4.25;;;24.60;80.20;;;;;;5072487;28;20029;-88
2021/07/08 04:10:23;;;;;;;6.60;4.38;;;24.70;79.40;;;;;;5088350;28;20056;-88
2021/07/08 04:12:49;;;;;;;5.03;4.40;;;24.70;79.20;;;;;;5072635;28;20409;-89
2021/07/08 04:15:16;;;;;;;6.88;3.97;;;24.80;78.80;;;;;;5072896;28;20073;-88
2021/07/08 04:17:41;;;;;;;4.63;4.22;;;24.90;78.10;;;;;;5073835;28;20055;-89
2021/07/08 04:20:10;;;;;;;5.30;3.60;;;25.00;77.60;;;;;;5074534;28;20524;-91
2021/07/08 04:22:36;;;;;;;4.82;4.25;;;25.00;77.00;;;;;;5074663;28;20029;-91
2021/07/08 04:25:04;;;;;;;4.25;3.83;;;25.10;76.70;;;;;;5074338;28;20040;-90
2021/07/08 04:27:30;;;;;;;4.97;3.33;;;25.30;76.50;;;;;;5073339;28;20036;-91
2021/07/08 04:29:55;;;;;;;8.50;3.97;;;25.30;75.80;;;;;;5073876;28;20037;-90
2021/07/08 04:32:22;;;;;;;5.72;4.07;;;25.40;75.30;;;;;;5076372;28;20047;-90
2021/07/08 04:34:47;;;;;;;4.90;3.83;;;25.50;74.50;;;;;;5074921;28;20060;-91
2021/07/08 04:37:13;;;;;;;4.53;4.13;;;25.50;74.10;;;;;;5078232;28;20052;-91
2021/07/08 04:39:39;;;;;;;4.07;3.55;;;25.60;72.80;;;;;;5073025;28;20048;-91
2021/07/08 04:42:05;;;;;;;6.80;3.60;;;25.60;72.80;;;;;;5073068;28;20044;-91
2021/07/08 04:44:30;;;;;;;6.82;3.72;;;25.70;72.70;;;;;;5074285;28;20060;-92
2021/07/08 04:46:56;;;;;;;5.55;3.95;;;25.80;71.60;;;;;;5074506;28;20119;-92
2021/07/08 04:49:22;;;;;;;3.70;3.40;;;25.80;70.50;;;;;;5076006;28;20032;-91
2021/07/08 04:51:48;;;;;;;5.55;3.97;;;25.80;70.00;;;;;;5075796;28;20029;-90
2021/07/08 04:54:14;;;;;;;4.85;3.80;;;25.90;69.70;;;;;;5072738;28;20029;-88
2021/07/08 04:56:39;;;;;;;4.20;3.80;;;25.90;69.60;;;;;;5072761;28;20090;-89
2021/07/08 04:59:05;;;;;;;4.63;3.60;;;26.00;69.10;;;;;;5072543;28;20036;-90
2021/07/08 05:01:31;;;;;;;5.53;3.45;;;26.10;68.70;;;;;;5073245;28;20095;-90
2021/07/08 05:04:00;;;;;;;4.18;3.42;;;26.20;68.50;;;;;;5078739;28;20083;-91
2021/07/08 05:06:26;;;;;;;4.25;3.70;;;26.30;68.10;;;;;;5080257;28;20484;-92
2021/07/08 05:08:52;;;;;;;3.53;2.90;;;26.40;67.80;;;;;;5089204;22;20127;-92
2021/07/08 05:11:18;;;;;;;5.10;3.50;;;26.60;67.50;;;;;;5083184;28;20060;-92
2021/07/08 05:13:43;;;;;;;3.53;3.20;;;26.80;67.00;;;;;;5220528;22;20044;-93
2021/07/08 05:16:09;;;;;;;5.90;3.58;;;27.00;67.10;;;;;;5077805;28;20505;-90
2021/07/08 05:18:35;;;;;;;4.93;3.22;;;27.20;66.40;;;;;;5076413;28;20037;-90
2021/07/08 05:21:01;;;;;;;3.72;3.33;;;27.50;66.60;;;;;;5076515;28;20117;-89
2021/07/08 05:23:29;;;;;;;3.40;3.10;;;27.70;65.20;;;;;;5076402;28;20036;-89
2021/07/08 05:25:54;;;;;;;5.28;3.05;;;28.10;65.30;;;;;;5076321;28;20485;-89
2021/07/08 05:28:20;;;;;;;4.55;3.00;;;28.40;64.40;;;;;;5076233;28;20048;-90
2021/07/08 05:30:46;;;;;;;3.33;3.00;;;28.70;64.00;;;;;;5077194;28;20104;-90
2021/07/08 05:33:12;;;;;;;8.07;3.30;;;29.00;63.80;;;;;;5075522;28;20048;-91
2021/07/08 05:35:38;;;;;;;3.40;3.10;;;29.30;62.00;;;;;;5077620;28;20048;-89
2021/07/08 05:38:06;;;;;;;5.43;3.28;;;29.60;61.90;;;;;;5075652;28;20489;-89
2021/07/08 05:40:32;;;;;;;2.90;2.70;;;29.90;60.80;;;;;;5076006;28;20537;-90
2021/07/08 05:42:58;;;;;;;5.28;3.20;;;30.20;60.20;;;;;;5076685;28;20040;-90
2021/07/08 05:45:24;;;;;;;6.97;2.80;;;30.50;58.50;;;;;;5077537;28;20386;-90
2021/07/08 05:47:50;;;;;;;3.47;2.92;;;30.60;58.30;;;;;;5076917;28;20154;-90
2021/07/08 05:50:16;;;;;;;4.55;3.20;;;30.80;58.00;;;;;;5094709;28;20036;-89
2021/07/08 05:52:42;;;;;;;4.53;3.08;;;31.10;57.60;;;;;;5080802;28;20401;-90
2021/07/08 05:55:08;;;;;;;3.40;2.90;;;31.50;57.00;;;;;;5076231;28;20043;-90
2021/07/08 05:57:34;;;;;;;6.63;2.83;;;31.80;56.30;;;;;;5077543;28;20512;-92
2021/07/08 06:00:01;;;;;;;4.38;2.63;;;31.90;56.00;;;;;;5075694;28;20029;-91
2021/07/08 06:02:27;;;;;;;5.15;3.08;;;32.00;54.60;;;;;;5075788;28;20048;-90
2021/07/08 06:04:52;;;;;;;4.35;2.70;;;32.20;54.60;;;;;;5078204;28;20432;-90
2021/07/08 06:07:18;;;;;;;3.33;2.50;;;32.30;52.70;;;;;;5075765;28;20032;-90
2021/07/08 06:09:44;;;;;;;6.25;2.60;;;32.50;53.20;;;;;;5074917;28;20060;-89
2021/07/08 06:12:10;;;;;;;3.92;2.22;;;32.70;51.20;;;;;;5075171;28;20481;-90
2021/07/08 06:14:36;;;;;;;3.80;2.58;;;32.80;51.50;;;;;;5074011;28;20044;-89
2021/07/08 06:17:01;;;;;;;3.15;2.25;;;33.00;52.10;;;;;;5076163;28;20409;-89
2021/07/08 06:19:27;;;;;;;4.22;2.40;;;33.10;51.50;;;;;;5078644;28;20047;-90
2021/07/08 06:21:53;;;;;;;6.13;2.42;;;33.30;51.30;;;;;;5074810;28;20538;-90
2021/07/08 06:24:19;;;;;;;5.80;2.30;;;33.30;49.80;;;;;;5075273;28;20033;-90
2021/07/08 06:26:45;;;;;;;6.47;2.50;;;33.40;50.00;;;;;;5074666;28;20029;-90
2021/07/08 06:29:11;;;;;;;4.47;2.53;;;33.50;49.40;;;;;;5073043;28;20378;-90
2021/07/08 06:31:37;;;;;;;3.83;2.50;;;33.70;48.50;;;;;;5076314;28;20028;-90
2021/07/08 06:34:05;;;;;;;4.32;2.38;;;33.70;48.10;;;;;;5073018;28;20481;-91
2021/07/08 06:36:31;;;;;;;4.47;2.20;;;33.80;48.50;;;;;;5075563;28;20332;-90
2021/07/08 06:38:57;;;;;;;3.45;2.22;;;34.00;48.50;;;;;;5076983;28;20396;-90
2021/07/08 06:41:23;;;;;;;2.33;2.10;;;34.30;48.20;;;;;;5077511;28;20032;-90
2021/07/08 06:43:48;;;;;;;2.63;2.10;;;34.40;47.50;;;;;;5075224;28;20116;-92
2021/07/08 06:46:17;;;;;;;5.30;1.90;;;34.40;47.60;;;;;;5073919;28;20482;-88
2021/07/08 06:48:44;;;;;;;7.03;2.10;;;34.50;47.10;;;;;;5076215;28;20036;-90
2021/07/08 06:51:10;;;;;;;5.30;2.00;;;34.60;47.20;;;;;;5075082;28;20095;-90
2021/07/08 06:53:38;;;;;;;3.25;2.10;;;34.70;46.40;;;;;;5085012;28;20446;-91
2021/07/08 06:56:06;;;;;;;2.78;2.13;;;34.90;46.00;;;;;;5087794;28;20036;-94
2021/07/08 06:58:36;;;;;;;3.95;2.20;;;34.80;45.00;;;;;;5104309;22;20048;-91
2021/07/08 07:01:03;;;;;;;3.38;2.10;;;34.80;45.30;;;;;;5080856;28;20123;-90
2021/07/08 07:03:34;;;;;;;5.00;1.88;;;34.80;44.30;;;;;;5081942;28;20037;-90
2021/07/08 07:06:02;;;;;;;3.53;2.03;;;34.80;44.10;;;;;;5101704;28;20067;-90
2021/07/08 07:08:28;;;;;;;4.45;2.00;;;34.80;44.70;;;;;;5083034;28;20034;-93
2021/07/08 07:10:53;;;;;;;4.88;2.08;;;35.10;44.20;;;;;;5082360;28;20123;-92
2021/07/08 07:13:19;;;;;;;6.45;2.28;;;35.30;43.90;;;;;;5081428;28;20051;-91
2021/07/08 07:15:51;;;;;;;1.90;1.77;;;35.40;43.20;;;;;;5086748;28;20024;-91
2021/07/08 07:18:17;;;;;;;3.58;1.88;;;35.60;43.70;;;;;;5093794;28;20051;-90
2021/07/08 07:20:43;;;;;;;2.65;2.13;;;35.80;43.20;;;;;;5091053;28;20032;-91
2021/07/08 07:23:08;;;;;;;3.72;1.95;;;36.10;42.70;;;;;;5093429;28;20036;-91
2021/07/08 07:25:39;;;;;;;2.72;1.75;;;36.40;41.60;;;;;;5082264;28;20498;-91
2021/07/08 07:28:10;;;;;;;5.20;1.88;;;36.50;41.20;;;;;;5084170;28;20040;-91
2021/07/08 07:30:36;;;;;;;2.88;1.80;;;36.60;40.40;;;;;;5082027;28;20066;-89
2021/07/08 07:33:02;;;;;;;2.70;1.67;;;36.60;39.80;;;;;;5080422;28;20051;-88
2021/07/08 07:35:37;;;;;;;3.38;1.70;;;36.60;40.50;;;;;;5082071;28;20032;-90
2021/07/08 07:38:07;;;;;;;1.98;1.60;;;36.60;40.90;;;;;;5082519;28;20059;-89
2021/07/08 07:40:33;;;;;;;1.92;1.50;;;36.60;40.50;;;;;;5083380;28;20032;-89
2021/07/08 07:42:59;;;;;;;2.28;1.85;;;36.70;40.30;;;;;;5081515;28;20397;-89
2021/07/08 07:45:24;;;;;;;4.63;1.90;;;36.90;39.90;;;;;;5082957;28;20032;-90
2021/07/08 07:47:52;;;;;;;6.13;1.83;;;37.00;39.00;;;;;;5080288;28;20036;-90
2021/07/08 07:50:19;;;;;;;2.28;1.30;;;36.90;38.10;;;;;;5079364;28;20052;-90
2021/07/08 07:52:46;;;;;;;2.83;1.60;;;36.80;37.90;;;;;;5079824;28;20055;-91
2021/07/08 07:55:13;;;;;;;2.63;1.52;;;36.80;38.70;;;;;;5081364;28;20036;-91
2021/07/08 07:57:41;;;;;;;3.20;1.73;;;36.80;38.20;;;;;;5075150;28;20130;-90
2021/07/08 08:00:08;;;;;;;1.90;1.40;;;36.90;37.70;;;;;;5076337;28;20021;-91
2021/07/08 08:02:34;;;;;;;3.00;1.42;;;37.10;36.30;;;;;;5089690;28;20036;-89
2021/07/08 08:10:16;;;;;;;2.28;1.30;;;36.50;36.20;;;;;;5102252;28;20129;-90
2021/07/08 08:12:42;;;;;;;2.15;1.38;;;36.50;36.90;;;;;;5082735;28;20115;-90
2021/07/08 08:15:10;;;;;;;4.13;1.02;;;36.50;36.60;;;;;;5080584;28;20121;-92
2021/07/08 08:17:37;;;;;;;3.47;1.15;;;36.80;34.80;;;;;;5079285;28;20455;-91
2021/07/08 08:20:10;;;;;;;2.35;1.15;;;36.80;34.60;;;;;;5082446;28;20420;-90
2021/07/08 08:22:38;;;;;;;1.40;1.30;;;36.90;34.70;;;;;;5087144;28;20036;-89
2021/07/08 08:25:05;;;;;;;2.35;1.15;;;36.90;34.80;;;;;;5083711;28;20096;-89
2021/07/08 08:27:31;;;;;;;3.22;1.30;;;37.10;34.60;;;;;;5091448;28;20035;-90
2021/07/08 08:29:57;;;;;;;2.35;1.30;;;37.20;35.20;;;;;;5080844;28;20142;-92
2021/07/08 08:32:22;;;;;;;1.63;1.20;;;37.30;35.00;;;;;;5078754;28;20197;-89
2021/07/08 08:34:49;;;;;;;1.48;1.27;;;37.40;34.60;;;;;;5079140;28;20028;-91
2021/07/08 08:37:15;;;;;;;1.15;1.05;;;37.60;33.30;;;;;;5083487;28;20047;-92
2021/07/08 08:39:41;;;;;;;0.90;0.90;;;37.40;33.00;;;;;;5082885;28;20028;-91
2021/07/08 08:42:08;;;;;;;1.40;1.10;;;37.40;33.10;;;;;;5080545;28;20058;-91
2021/07/08 08:44:34;;;;;;;1.42;1.10;;;37.60;33.20;;;;;;5077637;28;20036;-92
2021/07/08 08:47:00;;;;;;;2.50;1.20;;;37.90;33.80;;;;;;5078661;28;20061;-91
2021/07/08 08:49:26;;;;;;;2.10;1.30;;;38.40;33.10;;;;;;5078264;28;20032;-90
2021/07/08 08:51:53;;;;;;;1.95;1.17;;;38.50;33.10;;;;;;5078020;28;20032;-89
2021/07/08 08:54:19;;;;;;;1.30;1.20;;;38.40;32.80;;;;;;5082748;28;20105;-91
2021/07/08 08:56:48;;;;;;;1.42;1.10;;;38.40;32.60;;;;;;5081866;28;20063;-91
2021/07/08 08:59:14;;;;;;;2.20;1.20;;;38.30;33.60;;;;;;5085718;28;20048;-90
2021/07/08 09:01:39;;;;;;;4.82;1.40;;;38.40;33.60;;;;;;5079487;28;20040;-90
2021/07/08 09:04:19;;;;;;;1.75;1.30;;;38.60;33.80;;;;;;5081391;28;20044;-90
2021/07/08 09:06:44;;;;;;;4.43;1.42;;;39.00;34.20;;;;;;5080484;28;20044;-90
2021/07/08 09:09:10;;;;;;;4.88;1.65;;;39.10;33.20;;;;;;5080218;28;20036;-91
2021/07/08 09:11:38;;;;;;;2.63;1.35;;;38.90;33.80;;;;;;5080101;28;20378;-91
2021/07/08 09:14:05;;;;;;;1.73;1.50;;;39.00;34.00;;;;;;5083399;28;20028;-91
2021/07/08 09:16:34;;;;;;;1.50;1.40;;;39.10;33.80;;;;;;5083391;28;20044;-91
2021/07/08 09:19:23;;;;;;;3.92;1.40;;;39.20;33.90;;;;;;5080119;28;20032;-92
2021/07/08 09:21:52;;;;;;;1.70;1.38;;;39.50;34.00;;;;;;5081610;28;20541;-91
2021/07/08 09:24:22;;;;;;;2.10;1.60;;;39.50;34.10;;;;;;5077491;28;20028;-91
2021/07/08 09:27:02;;;;;;;1.58;1.42;;;39.70;34.50;;;;;;5078103;28;20094;-91
2021/07/08 09:29:33;;;;;;;1.48;1.35;;;40.40;35.00;;;;;;5096977;28;20554;-91
2021/07/08 09:32:11;;;;;;;2.05;1.52;;;41.20;34.60;;;;;;5079947;28;20389;-92
2021/07/08 09:34:39;;;;;;;1.50;1.40;;;41.70;34.20;;;;;;5091131;28;20043;-92
2021/07/08 09:37:10;;;;;;;1.55;1.42;;;42.20;34.10;;;;;;5081373;28;20496;-92
2021/07/08 09:39:39;;;;;;;3.60;1.30;;;42.50;33.00;;;;;;5063523;28;20426;-91
2021/07/08 09:42:06;;;;;;;1.50;1.35;;;42.00;32.30;;;;;;5079603;28;20035;-91
2021/07/08 09:44:32;;;;;;;1.38;1.27;;;42.00;33.10;;;;;;5097432;28;20024;-90
2021/07/08 09:46:58;;;;;;;6.00;1.48;;;42.10;32.40;;;;;;5508801;23;20102;-90
2021/07/08 09:49:26;;;;;;;3.88;1.70;;;42.00;33.40;;;;;;5094806;28;20135;-91
2021/07/08 09:51:53;;;;;;;1.83;1.30;;;42.00;33.10;;;;;;5089013;28;20036;-91
2021/07/08 09:55:00;;;;;;;1.50;1.40;;;41.80;33.10;;;;;;5090876;28;20020;-90
2021/07/08 09:57:41;;;;;;;1.63;1.40;;;42.00;33.00;;;;;;5104446;28;20024;-90
2021/07/08 10:00:19;;;;;;;2.13;1.60;;;42.20;33.10;;;;;;5104543;28;20047;-90
2021/07/08 10:02:47;;;;;;;1.92;1.48;;;42.10;33.10;;;;;;5103067;28;20016;-90
2021/07/08 10:05:13;;;;;;;2.28;1.60;;;41.90;33.30;;;;;;5104451;28;20056;-90
2021/07/08 10:07:39;;;;;;;2.42;1.42;;;41.80;33.20;;;;;;5104601;28;20051;-90
2021/07/08 10:10:06;;;;;;;2.05;1.63;;;41.70;33.00;;;;;;5121635;28;20028;-90
2021/07/08 10:12:33;;;;;;;2.42;1.70;;;41.80;33.30;;;;;;5104300;28;20096;-90
2021/07/08 10:15:04;;;;;;;1.77;1.30;;;41.80;33.40;;;;;;5081938;28;20051;-91
2021/07/08 10:17:32;;;;;;;1.50;1.40;;;41.90;33.50;;;;;;5080741;28;20046;-91
2021/07/08 10:19:58;;;;;;;2.63;1.40;;;42.00;33.60;;;;;;5078447;28;20260;-90
2021/07/08 10:22:24;;;;;;;1.90;1.58;;;42.30;33.30;;;;;;5080279;28;20063;-90
2021/07/08 10:24:51;;;;;;;1.25;1.15;;;42.40;33.10;;;;;;5096082;28;20452;-91
2021/07/08 10:27:21;;;;;;;3.00;1.50;;;42.40;32.60;;;;;;5096642;28;20032;-90
2021/07/08 10:29:48;;;;;;;1.17;1.17;;;42.30;32.70;;;;;;5079184;28;20043;-91
2021/07/08 10:32:16;;;;;;;1.58;1.20;;;42.50;33.20;;;;;;5078327;28;20040;-90
2021/07/08 10:34:49;;;;;;;1.80;1.20;;;43.00;33.20;;;;;;5079375;28;20028;-90
2021/07/08 10:37:43;;;;;;;2.78;1.50;;;43.40;32.10;;;;;;5096353;28;20048;-90
2021/07/08 10:40:29;;;;;;;1.55;1.15;;;43.70;32.60;;;;;;5093151;28;20028;-90
2021/07/08 10:42:55;;;;;;;2.65;1.30;;;43.90;31.80;;;;;;5080492;28;20508;-90
2021/07/08 10:45:36;;;;;;;2.50;1.48;;;43.40;32.00;;;;;;5062326;28;20039;-91
2021/07/08 10:48:16;;;;;;;2.42;1.40;;;43.10;32.10;;;;;;5080042;28;20035;-90
2021/07/08 10:50:48;;;;;;;1.27;1.25;;;42.90;32.00;;;;;;5095598;28;20089;-91
2021/07/08 10:53:18;;;;;;;3.70;1.23;;;43.00;32.40;;;;;;5078579;28;20496;-90
2021/07/08 10:55:47;;;;;;;1.73;1.42;;;43.40;32.60;;;;;;5079648;28;20366;-91
2021/07/08 10:58:36;;;;;;;3.60;1.50;;;43.80;32.30;;;;;;5080303;28;20093;-91
2021/07/08 11:01:02;;;;;;;1.73;1.10;;;43.90;31.80;;;;;;5077731;28;20035;-91
2021/07/08 11:03:43;;;;;;;1.48;1.30;;;43.80;32.30;;;;;;5077975;28;20040;-90
2021/07/08 11:06:17;;;;;;;4.60;1.30;;;44.20;32.10;;;;;;5079252;28;20118;-90
2021/07/08 11:08:46;;;;;;;4.65;1.70;;;43.90;31.50;;;;;;5078649;28;20106;-91
2021/07/08 11:11:32;;;;;;;2.55;1.30;;;43.40;31.80;;;;;;5078211;28;20106;-90
2021/07/08 11:14:20;;;;;;;1.15;1.00;;;43.20;32.00;;;;;;5077567;28;20143;-90
2021/07/08 11:16:48;;;;;;;2.08;0.90;;;43.60;32.00;;;;;;5077588;28;20044;-91
2021/07/08 11:19:36;;;;;;;2.85;1.02;;;44.00;32.00;;;;;;5096357;28;20047;-91
2021/07/08 11:22:13;;;;;;;1.00;1.00;;;44.30;31.90;;;;;;5077366;28;20039;-91
2021/07/08 11:24:39;;;;;;;2.17;1.08;;;44.90;31.70;;;;;;5078262;28;20435;-91
2021/07/08 11:27:08;;;;;;;1.20;1.10;;;45.10;31.40;;;;;;5078524;28;20032;-90
2021/07/08 11:29:45;;;;;;;1.17;1.17;;;45.20;31.30;;;;;;5077898;28;20036;-91
2021/07/08 11:32:36;;;;;;;1.95;1.30;;;45.60;31.30;;;;;;5080210;28;20042;-91
2021/07/08 11:35:16;;;;;;;4.13;1.38;;;45.80;31.30;;;;;;5078472;28;20489;-91
2021/07/08 11:37:54;;;;;;;2.60;1.33;;;46.20;31.40;;;;;;5077534;28;20044;-91
2021/07/08 11:40:21;;;;;;;2.20;1.27;;;46.70;31.40;;;;;;5077752;28;20032;-91
2021/07/08 11:42:49;;;;;;;1.98;1.15;;;46.80;31.30;;;;;;5077438;28;20028;-92
2021/07/08 11:45:23;;;;;;;3.38;1.30;;;46.90;30.80;;;;;;5077383;28;20032;-92
2021/07/08 11:47:54;;;;;;;2.58;1.13;;;46.40;30.40;;;;;;5087348;23;20133;-91
2021/07/08 11:50:24;;;;;;;2.72;0.95;;;45.60;30.50;;;;;;5077516;28;20081;-94
2021/07/08 11:53:07;;;;;;;1.02;1.00;;;45.20;30.60;;;;;;5076780;28;20039;-92
2021/07/08 11:55:33;;;;;;;2.55;1.10;;;45.10;31.20;;;;;;5060471;28;20032;-92
2021/07/08 11:58:00;;;;;;;1.90;1.13;;;45.10;31.30;;;;;;5078850;28;20512;-92
2021/07/08 12:00:28;;;;;;;1.17;1.05;;;45.10;30.90;;;;;;5080510;28;20016;-93
2021/07/08 12:02:54;;;;;;;1.83;1.08;;;44.90;31.00;;;;;;5107672;28;20050;-92
2021/07/08 12:05:21;;;;;;;2.00;1.10;;;45.30;31.40;;;;;;5086733;28;20385;-90
2021/07/08 12:08:00;;;;;;;4.53;1.00;;;45.80;31.50;;;;;;5079950;28;20115;-93
2021/07/08 12:10:39;;;;;;;3.00;1.20;;;46.20;31.00;;;;;;5080410;28;20039;-93
2021/07/08 12:13:05;;;;;;;1.10;1.00;;;46.50;30.80;;;;;;5093723;28;20040;-92
2021/07/08 12:15:31;;;;;;;1.98;1.00;;;46.60;30.80;;;;;;5079726;28;20039;-92
2021/07/08 12:18:00;;;;;;;1.65;1.30;;;46.60;30.30;;;;;;5079242;28;20595;-91
2021/07/08 12:20:35;;;;;;;1.58;1.13;;;45.80;30.20;;;;;;5098923;28;20469;-93
2021/07/08 12:23:03;;;;;;;1.20;1.10;;;45.30;30.50;;;;;;5077826;28;20099;-92
2021/07/08 12:25:30;;;;;;;1.40;1.30;;;45.00;31.00;;;;;;5077429;28;20028;-92
2021/07/08 12:27:56;;;;;;;1.40;1.20;;;44.80;31.10;;;;;;5079021;28;20044;-93
2021/07/08 12:30:27;;;;;;;3.20;1.00;;;44.80;31.10;;;;;;5088960;28;20052;-91
2021/07/08 12:33:14;;;;;;;2.22;1.15;;;44.80;31.30;;;;;;5116154;28;20055;-92
2021/07/08 12:35:48;;;;;;;3.33;1.17;;;45.10;30.60;;;;;;5078158;28;20058;-92
2021/07/08 12:38:18;;;;;;;4.15;1.10;;;45.00;30.50;;;;;;5065279;28;20048;-92
2021/07/08 12:40:47;;;;;;;2.38;1.25;;;44.80;30.80;;;;;;5084937;28;20493;-92
2021/07/08 12:43:18;;;;;;;1.42;1.20;;;44.70;30.90;;;;;;5087476;28;20048;-92
2021/07/08 12:45:45;;;;;;;4.22;1.20;;;44.70;31.10;;;;;;5080817;28;20035;-92
2021/07/08 12:48:14;;;;;;;1.30;1.20;;;44.60;30.90;;;;;;5077694;28;20447;-92
2021/07/08 12:50:45;;;;;;;1.35;1.20;;;44.90;31.20;;;;;;5074919;28;20067;-91
2021/07/08 12:53:13;;;;;;;8.23;1.83;;;44.80;30.40;;;;;;5077674;28;20036;-92
2021/07/08 12:55:50;;;;;;;3.50;1.30;;;44.40;30.50;;;;;;5078186;28;20503;-92
2021/07/08 12:58:17;;;;;;;1.67;1.13;;;43.80;31.10;;;;;;5076627;28;20089;-93